Terminal Aerodrome Forecast
Issued by NWS

Home | Current Version | Previous Version | Text Only | Print | Product List | Glossary On
Versions: 1 2 3 4 5 6 7 8 9 10 11 12 13 14 15 16 17
000
FTUS43 KIND 241120
TAFBMG
TAF
KBMG 241120Z 2412/2512 04005KT 4SM -SHRA OVC009
     FM241500 03005KT P6SM VCSH OVC008 PROB30 2421/2424 2SM -SHRA
      OVC004
     FM250100 01005KT P6SM OVC015
     FM250300 36005KT P6SM OVC008
      AMD LTD TO CLD VIS AND WIND TIL 241300=

USA.gov is the U.S. government's official web portal to all federal, state and local government web resources and services.